createdAt,value
2018-05-12T00:00:00.065Z,8.00
2018-05-12T00:01:00.084Z,8.00
2018-05-12T00:02:00.105Z,8.00
2018-05-12T00:03:00.128Z,8.00
2018-05-12T00:04:00.149Z,8.00
2018-05-12T00:05:00.171Z,8.00
2018-05-12T00:06:00.194Z,8.00
2018-05-12T00:07:00.215Z,8.00
2018-05-12T00:08:00.237Z,8.00
2018-05-12T00:09:00.259Z,8.00
2018-05-12T00:10:00.280Z,8.00
2018-05-12T00:11:00.303Z,8.00
2018-05-12T00:12:00.325Z,8.00
2018-05-12T00:13:00.346Z,8.00
2018-05-12T00:14:00.368Z,8.00
2018-05-12T00:15:00.461Z,8.00
2018-05-12T00:16:00.413Z,8.00
2018-05-12T00:17:00.436Z,8.00
2018-05-12T00:18:00.455Z,8.00
2018-05-12T00:19:00.477Z,8.00
2018-05-12T00:20:00.500Z,8.00
2018-05-12T00:21:00.523Z,8.00
2018-05-12T00:22:00.549Z,8.00
2018-05-12T00:23:00.565Z,8.00
2018-05-12T00:24:00.588Z,8.00
2018-05-12T00:25:00.609Z,8.00
2018-05-12T00:26:00.634Z,8.00
2018-05-12T00:27:00.657Z,8.00
2018-05-12T00:28:00.675Z,8.00
2018-05-12T00:29:00.696Z,8.00
2018-05-12T00:30:00.717Z,8.00
2018-05-12T00:31:00.740Z,4.00
2018-05-12T00:32:00.762Z,8.00
2018-05-12T00:33:00.787Z,8.00
2018-05-12T00:34:00.805Z,8.00
2018-05-12T00:35:00.827Z,8.00
2018-05-12T00:36:00.849Z,8.00
2018-05-12T00:37:00.871Z,8.00
2018-05-12T00:38:00.892Z,8.00
2018-05-12T00:39:00.917Z,8.00
2018-05-12T00:40:00.938Z,8.00
2018-05-12T00:41:00.957Z,8.00
2018-05-12T00:42:00.984Z,8.00
2018-05-12T00:43:01.062Z,4.00
2018-05-12T00:44:01.023Z,4.00
2018-05-12T00:45:01.045Z,4.00
2018-05-12T00:46:01.070Z,4.00
2018-05-12T00:47:01.089Z,4.00
2018-05-12T00:48:01.110Z,4.00
2018-05-12T00:49:01.132Z,8.00
2018-05-12T00:50:01.155Z,8.00
2018-05-12T00:51:01.175Z,8.00
2018-05-12T00:52:01.197Z,4.00
2018-05-12T00:53:01.219Z,8.00
2018-05-12T00:54:01.240Z,8.00
2018-05-12T00:55:01.263Z,8.00
2018-05-12T00:56:01.287Z,4.00
2018-05-12T00:57:01.308Z,4.00
2018-05-12T00:58:01.328Z,4.00
2018-05-12T00:59:01.350Z,4.00
2018-05-12T01:00:01.372Z,4.00
2018-05-12T01:01:01.397Z,4.00
2018-05-12T01:02:01.415Z,4.00
2018-05-12T01:03:01.437Z,4.00
2018-05-12T01:04:01.459Z,4.00
2018-05-12T01:05:01.481Z,4.00
2018-05-12T01:06:01.502Z,4.00
2018-05-12T01:07:01.527Z,4.00
2018-05-12T01:08:01.546Z,4.00
2018-05-12T01:09:01.567Z,4.00
2018-05-12T01:10:01.590Z,4.00
2018-05-12T01:11:01.611Z,4.00
2018-05-12T01:12:01.633Z,4.00
2018-05-12T01:13:01.654Z,4.00
2018-05-12T01:14:01.682Z,4.00
2018-05-12T01:15:01.699Z,4.00
2018-05-12T01:16:01.719Z,4.00
2018-05-12T01:17:01.744Z,4.00
2018-05-12T01:18:01.763Z,4.00
2018-05-12T01:19:01.785Z,4.00
2018-05-12T01:20:01.808Z,4.00
2018-05-12T01:21:01.829Z,4.00
2018-05-12T01:22:01.851Z,4.00
2018-05-12T01:23:01.872Z,4.00
2018-05-12T01:24:01.898Z,4.00
2018-05-12T01:25:01.916Z,4.00
2018-05-12T01:26:01.937Z,4.00
2018-05-12T01:27:01.959Z,4.00
2018-05-12T01:28:01.982Z,4.00
2018-05-12T01:29:02.002Z,4.00
2018-05-12T01:30:02.025Z,4.00
2018-05-12T01:31:02.047Z,4.00
2018-05-12T01:32:02.269Z,4.00
2018-05-12T01:33:02.091Z,4.00
2018-05-12T01:34:02.116Z,4.00
2018-05-12T01:35:02.139Z,4.00
2018-05-12T01:36:02.157Z,4.00
2018-05-12T01:37:02.178Z,4.00
2018-05-12T01:38:02.199Z,4.00
2018-05-12T01:39:02.222Z,4.00
2018-05-12T01:40:02.243Z,4.00
2018-05-12T01:41:02.265Z,4.00
2018-05-12T01:42:02.286Z,4.00
2018-05-12T01:43:02.308Z,4.00
2018-05-12T01:44:02.330Z,4.00
2018-05-12T01:45:02.353Z,4.00
2018-05-12T01:46:02.373Z,4.00
2018-05-12T01:47:02.395Z,4.00
2018-05-12T01:48:02.417Z,4.00
2018-05-12T01:49:02.439Z,4.00
2018-05-12T01:50:02.462Z,4.00
2018-05-12T01:51:02.482Z,4.00
2018-05-12T01:52:02.506Z,4.00
2018-05-12T01:53:02.526Z,4.00
2018-05-12T01:54:02.547Z,4.00
2018-05-12T01:55:02.568Z,4.00
2018-05-12T01:56:02.596Z,4.00
2018-05-12T01:57:02.613Z,4.00
2018-05-12T01:58:02.639Z,4.00
2018-05-12T01:59:02.656Z,4.00
2018-05-12T02:00:02.678Z,4.00
2018-05-12T02:01:02.700Z,4.00
2018-05-12T02:02:02.722Z,4.00
2018-05-12T02:03:02.744Z,4.00
2018-05-12T02:04:02.766Z,4.00
2018-05-12T02:05:02.791Z,4.00
2018-05-12T02:06:02.809Z,4.00
2018-05-12T02:07:02.831Z,4.00
2018-05-12T02:08:02.853Z,4.00
2018-05-12T02:09:02.883Z,4.00
2018-05-12T02:10:02.897Z,4.00
2018-05-12T02:11:02.919Z,4.00
2018-05-12T02:12:02.941Z,4.00
2018-05-12T02:13:02.964Z,4.00
2018-05-12T02:14:02.985Z,4.00
2018-05-12T02:15:03.006Z,4.00
2018-05-12T02:16:03.028Z,4.00
2018-05-12T02:17:03.049Z,4.00
2018-05-12T02:18:03.072Z,4.00
2018-05-12T02:19:03.094Z,4.00
2018-05-12T02:20:03.116Z,4.00
2018-05-12T02:21:03.138Z,4.00
2018-05-12T02:22:03.159Z,4.00
2018-05-12T02:23:03.181Z,4.00
2018-05-12T02:24:03.206Z,4.00
2018-05-12T02:25:03.230Z,4.00
2018-05-12T02:26:03.246Z,4.00
2018-05-12T02:27:03.268Z,4.00
2018-05-12T02:28:03.293Z,4.00
2018-05-12T02:29:03.313Z,4.00
2018-05-12T02:30:03.334Z,4.00
2018-05-12T02:31:03.356Z,4.00
2018-05-12T02:32:03.377Z,4.00
2018-05-12T02:33:03.401Z,4.00
2018-05-12T02:34:03.422Z,4.00
2018-05-12T02:35:03.448Z,4.00
2018-05-12T02:36:03.466Z,4.00
2018-05-12T02:37:03.488Z,4.00
2018-05-12T02:38:03.511Z,4.00
2018-05-12T02:39:03.533Z,4.00
2018-05-12T02:40:03.555Z,4.00
2018-05-12T02:41:03.580Z,4.00
2018-05-12T02:42:03.597Z,4.00
2018-05-12T02:43:03.618Z,4.00
2018-05-12T02:44:03.642Z,4.00
2018-05-12T02:45:03.665Z,4.00
2018-05-12T02:46:03.683Z,4.00
2018-05-12T02:47:03.707Z,4.00
2018-05-12T02:48:03.728Z,4.00
2018-05-12T02:49:03.751Z,4.00
2018-05-12T02:50:03.771Z,4.00
2018-05-12T02:51:03.793Z,4.00
2018-05-12T02:52:03.815Z,4.00
2018-05-12T02:53:03.836Z,4.00
2018-05-12T02:54:03.863Z,4.00
2018-05-12T02:55:03.880Z,4.00
2018-05-12T02:56:03.902Z,4.00
2018-05-12T02:57:03.925Z,4.00
2018-05-12T02:58:03.946Z,4.00
2018-05-12T02:59:03.966Z,4.00
2018-05-12T03:00:03.989Z,8.00
2018-05-12T03:01:04.019Z,8.00
2018-05-12T03:02:04.031Z,8.00
2018-05-12T03:03:04.053Z,8.00
2018-05-12T03:04:04.079Z,8.00
2018-05-12T03:05:04.097Z,4.00
2018-05-12T03:06:04.119Z,4.00
2018-05-12T03:07:04.141Z,8.00
2018-05-12T03:08:04.163Z,8.00
2018-05-12T03:09:04.184Z,8.00
2018-05-12T03:10:04.205Z,8.00
2018-05-12T03:11:04.227Z,8.00
2018-05-12T03:12:04.248Z,8.00
2018-05-12T03:13:04.270Z,8.00
2018-05-12T03:14:04.293Z,8.00
2018-05-12T03:15:04.318Z,12.00
2018-05-12T03:16:04.334Z,12.00
2018-05-12T03:17:04.357Z,12.00
2018-05-12T03:18:04.377Z,16.00
2018-05-12T03:19:04.398Z,16.00
2018-05-12T03:20:04.420Z,16.00
2018-05-12T03:21:04.442Z,16.00
2018-05-12T03:22:04.464Z,16.00
2018-05-12T03:23:04.484Z,16.00
2018-05-12T03:24:04.507Z,20.00
2018-05-12T03:25:04.527Z,24.00
2018-05-12T03:26:04.611Z,32.00
2018-05-12T03:27:04.570Z,32.00
2018-05-12T03:28:04.591Z,36.00
2018-05-12T03:29:04.612Z,40.00
2018-05-12T03:30:04.633Z,44.00
2018-05-12T03:31:04.655Z,52.00
2018-05-12T03:32:04.676Z,60.00
2018-05-12T03:33:04.698Z,60.00
2018-05-12T03:34:04.719Z,72.00
2018-05-12T03:35:04.739Z,76.00
2018-05-12T03:36:04.765Z,84.00
2018-05-12T03:37:04.783Z,92.00
2018-05-12T03:38:04.803Z,104.00
2018-05-12T03:39:04.825Z,112.00
2018-05-12T03:40:04.847Z,124.00
2018-05-12T03:41:04.869Z,132.00
2018-05-12T03:42:04.895Z,144.00
2018-05-12T03:43:04.910Z,152.00
2018-05-12T03:44:04.932Z,164.00
2018-05-12T03:45:04.953Z,176.00
2018-05-12T03:46:04.972Z,184.00
2018-05-12T03:47:04.995Z,196.00
2018-05-12T03:48:05.016Z,208.00
2018-05-12T03:49:05.041Z,224.00
2018-05-12T03:50:05.058Z,236.00
2018-05-12T03:51:05.080Z,248.00
2018-05-12T03:52:05.101Z,264.00
2018-05-12T03:53:05.123Z,280.00
2018-05-12T03:54:05.143Z,296.00
2018-05-12T03:55:05.164Z,312.00
2018-05-12T03:56:05.185Z,328.00
2018-05-12T03:57:05.207Z,348.00
2018-05-12T03:58:05.228Z,364.00
2018-05-12T03:59:05.250Z,384.00
2018-05-12T04:00:05.348Z,400.00
2018-05-12T04:01:05.292Z,424.00
2018-05-12T04:02:05.313Z,440.00
2018-05-12T04:03:05.333Z,464.00
2018-05-12T04:04:05.356Z,484.00
2018-05-12T04:05:05.381Z,508.00
2018-05-12T04:06:05.397Z,528.00
2018-05-12T04:07:05.418Z,548.00
2018-05-12T04:08:05.439Z,576.00
2018-05-12T04:09:05.462Z,596.00
2018-05-12T04:10:05.483Z,620.00
2018-05-12T04:11:05.503Z,644.00
2018-05-12T04:12:05.526Z,672.00
2018-05-12T04:13:05.545Z,696.00
2018-05-12T04:14:05.566Z,724.00
2018-05-12T04:15:05.592Z,752.00
2018-05-12T04:16:05.609Z,780.00
2018-05-12T04:17:05.635Z,804.00
2018-05-12T04:18:05.651Z,836.00
2018-05-12T04:19:05.672Z,864.00
2018-05-12T04:20:05.695Z,892.00
2018-05-12T04:21:05.808Z,916.00
2018-05-12T04:22:05.735Z,948.00
2018-05-12T04:23:05.756Z,980.00
2018-05-12T04:24:05.777Z,1008.00
2018-05-12T04:25:05.799Z,1036.00
2018-05-12T04:26:05.819Z,1068.00
2018-05-12T04:27:05.841Z,1096.00
2018-05-12T04:28:05.861Z,1128.00
2018-05-12T04:29:05.883Z,1156.00
2018-05-12T04:30:05.904Z,1188.00
2018-05-12T04:31:05.924Z,1220.00
2018-05-12T04:32:05.947Z,1244.00
2018-05-12T04:33:05.967Z,1280.00
2018-05-12T04:34:05.988Z,1308.00
2018-05-12T04:35:06.009Z,1340.00
2018-05-12T04:36:06.031Z,1372.00
2018-05-12T04:37:06.052Z,1396.00
2018-05-12T04:38:06.074Z,1428.00
2018-05-12T04:39:06.094Z,1460.00
2018-05-12T04:40:06.115Z,1492.00
2018-05-12T04:41:06.136Z,1516.00
2018-05-12T04:42:06.157Z,1540.00
2018-05-12T04:43:06.177Z,1568.00
2018-05-12T04:44:06.200Z,1592.00
2018-05-12T04:45:06.221Z,1624.00
2018-05-12T04:46:06.241Z,1656.00
2018-05-12T04:47:06.263Z,1680.00
2018-05-12T04:48:06.283Z,1708.00
2018-05-12T04:49:06.306Z,1728.00
2018-05-12T04:50:06.326Z,1756.00
2018-05-12T04:51:06.347Z,1792.00
2018-05-12T04:52:06.369Z,1824.00
2018-05-12T04:53:06.396Z,1848.00
2018-05-12T04:54:06.412Z,1880.00
2018-05-12T04:55:06.432Z,1904.00
2018-05-12T04:56:06.454Z,1932.00
2018-05-12T04:57:06.475Z,1960.00
2018-05-12T04:58:06.494Z,1996.00
2018-05-12T04:59:06.519Z,2032.00
2018-05-12T05:00:06.538Z,2068.00
2018-05-12T05:01:06.561Z,2096.00
2018-05-12T05:02:06.581Z,2116.00
2018-05-12T05:03:06.601Z,2132.00
2018-05-12T05:04:06.624Z,2148.00
2018-05-12T05:05:06.646Z,2172.00
2018-05-12T05:06:06.666Z,2188.00
2018-05-12T05:07:06.688Z,2208.00
2018-05-12T05:08:06.756Z,2220.00
2018-05-12T05:09:06.731Z,2232.00
2018-05-12T05:10:06.749Z,2244.00
2018-05-12T05:11:06.772Z,2252.00
2018-05-12T05:12:06.794Z,2260.00
2018-05-12T05:13:06.815Z,2268.00
2018-05-12T05:14:06.837Z,2276.00
2018-05-12T05:15:06.858Z,2296.00
2018-05-12T05:16:06.879Z,2312.00
2018-05-12T05:17:06.902Z,2324.00
2018-05-12T05:18:06.922Z,2344.00
2018-05-12T05:19:06.944Z,2360.00
2018-05-12T05:20:06.967Z,2372.00
2018-05-12T05:21:07.051Z,2380.00
2018-05-12T05:22:07.008Z,2400.00
2018-05-12T05:23:07.030Z,2420.00
2018-05-12T05:24:07.059Z,2448.00
2018-05-12T05:25:07.073Z,2476.00
2018-05-12T05:26:07.096Z,2488.00
2018-05-12T05:27:07.117Z,2496.00
2018-05-12T05:28:07.138Z,2516.00
2018-05-12T05:29:07.160Z,2536.00
2018-05-12T05:30:07.182Z,2552.00
2018-05-12T05:31:07.202Z,2560.00
2018-05-12T05:32:07.224Z,2564.00
2018-05-12T05:33:07.245Z,2616.00
2018-05-12T05:34:07.267Z,2656.00
2018-05-12T05:35:07.380Z,2684.00
2018-05-12T05:36:07.311Z,2712.00
2018-05-12T05:37:07.333Z,2748.00
2018-05-12T05:38:07.353Z,2824.00
2018-05-12T05:39:07.378Z,2940.00
2018-05-12T05:40:07.397Z,2992.00
2018-05-12T05:41:07.419Z,3020.00
2018-05-12T05:42:07.440Z,3016.00
2018-05-12T05:43:07.462Z,3012.00
2018-05-12T05:44:07.485Z,3032.00
2018-05-12T05:45:07.507Z,3044.00
2018-05-12T05:46:07.528Z,3060.00
2018-05-12T05:47:07.549Z,3016.00
2018-05-12T05:48:07.573Z,3068.00
2018-05-12T05:49:07.595Z,3080.00
2018-05-12T05:50:07.712Z,3084.00
2018-05-12T05:51:07.642Z,3060.00
2018-05-12T05:52:07.663Z,3064.00
2018-05-12T05:53:07.685Z,2928.00
2018-05-12T05:54:07.710Z,2792.00
2018-05-12T05:55:07.729Z,2756.00
2018-05-12T05:56:07.754Z,2724.00
2018-05-12T05:57:07.776Z,2756.00
2018-05-12T05:58:07.797Z,2828.00
2018-05-12T05:59:07.820Z,2864.00
2018-05-12T06:00:07.841Z,2876.00
2018-05-12T06:01:07.866Z,2908.00
2018-05-12T06:02:07.888Z,2968.00
2018-05-12T06:03:07.911Z,2984.00
2018-05-12T06:04:07.937Z,2968.00
2018-05-12T06:05:07.958Z,2892.00
2018-05-12T06:06:07.978Z,2820.00
2018-05-12T06:07:08.089Z,2876.00
2018-05-12T06:08:08.025Z,2936.00
2018-05-12T06:09:08.047Z,3028.00
2018-05-12T06:10:08.072Z,3124.00
2018-05-12T06:11:08.092Z,3184.00
2018-05-12T06:12:08.115Z,3200.00
2018-05-12T06:13:08.138Z,3244.00
2018-05-12T06:14:08.161Z,3248.00
2018-05-12T06:15:08.182Z,3164.00
2018-05-12T06:16:08.205Z,3132.00
2018-05-12T06:17:08.229Z,3296.00
2018-05-12T06:18:08.272Z,3392.00
2018-05-12T06:19:08.275Z,3420.00
2018-05-12T06:20:08.298Z,3448.00
2018-05-12T06:21:08.320Z,3476.00
2018-05-12T06:22:08.341Z,3512.00
2018-05-12T06:23:08.364Z,3480.00
2018-05-12T06:24:08.387Z,3560.00
2018-05-12T06:25:08.410Z,3608.00
2018-05-12T06:26:08.432Z,3712.00
2018-05-12T06:27:08.455Z,3776.00
2018-05-12T06:28:08.478Z,3780.00
2018-05-12T06:29:08.506Z,3864.00
2018-05-12T06:30:08.526Z,3880.00
2018-05-12T06:31:08.546Z,3880.00
2018-05-12T06:32:08.571Z,3856.00
2018-05-12T06:33:08.593Z,3720.00
2018-05-12T06:34:08.615Z,3648.00
2018-05-12T06:35:08.639Z,3540.00
2018-05-12T06:36:08.662Z,3596.00
2018-05-12T06:37:08.685Z,3648.00
2018-05-12T06:38:08.708Z,3744.00
2018-05-12T06:39:08.730Z,3864.00
2018-05-12T06:40:08.754Z,3908.00
2018-05-12T06:41:08.777Z,3988.00
2018-05-12T06:42:08.799Z,4052.00
2018-05-12T06:43:08.821Z,4120.00
2018-05-12T06:44:08.845Z,4168.00
2018-05-12T06:45:08.868Z,4228.00
2018-05-12T06:46:08.890Z,4316.00
2018-05-12T06:47:08.913Z,4332.00
2018-05-12T06:48:08.938Z,4308.00
2018-05-12T06:49:08.960Z,4240.00
2018-05-12T06:50:08.982Z,4300.00
2018-05-12T06:51:09.005Z,4236.00
2018-05-12T06:52:09.032Z,4244.00
2018-05-12T06:53:09.052Z,4128.00
2018-05-12T06:54:09.075Z,4016.00
2018-05-12T06:55:09.098Z,3888.00
2018-05-12T06:56:09.120Z,4132.00
2018-05-12T06:57:09.143Z,4248.00
2018-05-12T06:58:09.166Z,3972.00
2018-05-12T06:59:09.189Z,4312.00
2018-05-12T07:00:09.213Z,4472.00
2018-05-12T07:01:09.241Z,4500.00
2018-05-12T07:02:09.263Z,4448.00
2018-05-12T07:03:09.282Z,4484.00
2018-05-12T07:04:09.307Z,4440.00
2018-05-12T07:05:09.334Z,4476.00
2018-05-12T07:06:09.352Z,4408.00
2018-05-12T07:07:09.374Z,4448.00
2018-05-12T07:08:09.400Z,4492.00
2018-05-12T07:09:09.421Z,4632.00
2018-05-12T07:10:09.443Z,4672.00
2018-05-12T07:11:09.468Z,4792.00
2018-05-12T07:12:09.501Z,4776.00
2018-05-12T07:13:09.518Z,4712.00
2018-05-12T07:14:09.538Z,4688.00
2018-05-12T07:15:09.565Z,4812.00
2018-05-12T07:16:09.584Z,4912.00
2018-05-12T07:17:09.609Z,4648.00
2018-05-12T07:18:09.632Z,4612.00
2018-05-12T07:19:09.656Z,4548.00
2018-05-12T07:20:09.679Z,4428.00
2018-05-12T07:21:09.704Z,4408.00
2018-05-12T07:22:09.727Z,4540.00
2018-05-12T07:23:09.752Z,4592.00
2018-05-12T07:24:09.776Z,4744.00
2018-05-12T07:25:09.801Z,4720.00
2018-05-12T07:26:09.825Z,4768.00
2018-05-12T07:27:09.849Z,4920.00
2018-05-12T07:28:09.879Z,4904.00
2018-05-12T07:29:09.899Z,4756.00
2018-05-12T07:30:09.923Z,4744.00
2018-05-12T07:31:09.948Z,4712.00
2018-05-12T07:32:09.976Z,4676.00
2018-05-12T07:33:09.997Z,4556.00
2018-05-12T07:34:10.023Z,4556.00
2018-05-12T07:35:10.046Z,4672.00
2018-05-12T07:36:10.075Z,4492.00
2018-05-12T07:37:10.101Z,4448.00
2018-05-12T07:38:10.122Z,4556.00
2018-05-12T07:39:10.241Z,4500.00
2018-05-12T07:40:10.172Z,4640.00
2018-05-12T07:41:10.198Z,4536.00
2018-05-12T07:42:10.225Z,4636.00
2018-05-12T07:43:10.248Z,4688.00
2018-05-12T07:44:10.277Z,4804.00
2018-05-12T07:45:10.299Z,4812.00
2018-05-12T07:46:10.323Z,4856.00
2018-05-12T07:47:10.349Z,4992.00
2018-05-12T07:48:10.374Z,5212.00
2018-05-12T07:49:10.400Z,5324.00
2018-05-12T07:50:10.425Z,5380.00
2018-05-12T07:51:10.450Z,5468.00
2018-05-12T07:52:10.476Z,5356.00
2018-05-12T07:53:10.502Z,5372.00
2018-05-12T07:54:10.576Z,5376.00
2018-05-12T07:55:10.552Z,5244.00
2018-05-12T07:56:10.579Z,5488.00
2018-05-12T07:57:10.603Z,5528.00
2018-05-12T07:58:10.628Z,5460.00
2018-05-12T07:59:10.653Z,5368.00
2018-05-12T08:00:10.679Z,5424.00
2018-05-12T08:01:10.705Z,5476.00
2018-05-12T08:02:10.730Z,5140.00
2018-05-12T08:03:10.755Z,5468.00
2018-05-12T08:04:10.781Z,5508.00
2018-05-12T08:05:10.810Z,5472.00
2018-05-12T08:06:10.838Z,5452.00
2018-05-12T08:07:10.857Z,5496.00
2018-05-12T08:08:10.884Z,5480.00
2018-05-12T08:09:10.909Z,5496.00
2018-05-12T08:10:10.985Z,5568.00
2018-05-12T08:11:10.960Z,5452.00
2018-05-12T08:12:10.985Z,5480.00
2018-05-12T08:13:11.012Z,5492.00
2018-05-12T08:14:11.037Z,5476.00
2018-05-12T08:15:11.063Z,5496.00
2018-05-12T08:16:11.090Z,5496.00
2018-05-12T08:17:11.118Z,5484.00
2018-05-12T08:18:11.143Z,5508.00
2018-05-12T08:19:11.165Z,5496.00
2018-05-12T08:20:11.193Z,5484.00
2018-05-12T08:21:11.217Z,5508.00
2018-05-12T08:22:11.242Z,5468.00
2018-05-12T08:23:11.268Z,5504.00
2018-05-12T08:24:11.294Z,5540.00
2018-05-12T08:25:11.319Z,5476.00
2018-05-12T08:26:11.477Z,5536.00
2018-05-12T08:27:11.371Z,5516.00
2018-05-12T08:28:11.397Z,5504.00
2018-05-12T08:29:11.423Z,5560.00
2018-05-12T08:30:11.448Z,5540.00
2018-05-12T08:31:11.474Z,5516.00
2018-05-12T08:32:11.500Z,5532.00
2018-05-12T08:33:11.526Z,5464.00
2018-05-12T08:34:11.552Z,5604.00
2018-05-12T08:35:11.577Z,5560.00
2018-05-12T08:36:11.655Z,5580.00
2018-05-12T08:37:11.632Z,5596.00
2018-05-12T08:38:11.654Z,5624.00
2018-05-12T08:39:11.682Z,5656.00
2018-05-12T08:40:11.707Z,5656.00
2018-05-12T08:41:11.736Z,5592.00
2018-05-12T08:42:11.758Z,5596.00
2018-05-12T08:43:11.784Z,5612.00
2018-05-12T08:44:11.811Z,5588.00
2018-05-12T08:45:11.839Z,5628.00
2018-05-12T08:46:11.861Z,5640.00
2018-05-12T08:47:11.888Z,5648.00
2018-05-12T08:48:11.967Z,5656.00
2018-05-12T08:49:11.943Z,5660.00
2018-05-12T08:50:11.965Z,5652.00
2018-05-12T08:51:11.992Z,5656.00
2018-05-12T08:52:12.019Z,5612.00
2018-05-12T08:53:12.045Z,5604.00
2018-05-12T08:54:12.173Z,5548.00
2018-05-12T08:55:12.131Z,5496.00
2018-05-12T08:56:12.123Z,5524.00
2018-05-12T08:57:12.148Z,5404.00
2018-05-12T08:58:12.179Z,5472.00
2018-05-12T08:59:12.201Z,5312.00
2018-05-12T09:00:12.226Z,5376.00
2018-05-12T09:01:12.253Z,5408.00
2018-05-12T09:02:12.280Z,5524.00
2018-05-12T09:03:12.308Z,5600.00
2018-05-12T09:04:12.330Z,5660.00
2018-05-12T09:05:12.355Z,5808.00
2018-05-12T09:06:12.381Z,5836.00
2018-05-12T09:07:12.419Z,6068.00
2018-05-12T09:08:12.434Z,5876.00
2018-05-12T09:09:12.460Z,5884.00
2018-05-12T09:10:12.488Z,5888.00
2018-05-12T09:11:12.512Z,5924.00
2018-05-12T09:12:12.540Z,5928.00
2018-05-12T09:13:12.565Z,5944.00
2018-05-12T09:14:12.591Z,5964.00
2018-05-12T09:15:12.617Z,6052.00
2018-05-12T09:16:12.647Z,6088.00
2018-05-12T09:17:12.675Z,6024.00
2018-05-12T09:18:12.696Z,6124.00
2018-05-12T09:19:12.811Z,6128.00
2018-05-12T09:20:12.751Z,5984.00
2018-05-12T09:21:12.775Z,5952.00
2018-05-12T09:22:12.802Z,5588.00
2018-05-12T09:23:12.828Z,5764.00
2018-05-12T09:24:12.856Z,6132.00
2018-05-12T09:25:12.881Z,6076.00
2018-05-12T09:26:12.907Z,6036.00
2018-05-12T09:27:12.934Z,5892.00
2018-05-12T09:28:12.960Z,6200.00
2018-05-12T09:29:12.987Z,6172.00
2018-05-12T09:30:13.011Z,5936.00
2018-05-12T09:31:13.039Z,5956.00
2018-05-12T09:32:13.065Z,6036.00
2018-05-12T09:33:13.093Z,6184.00
2018-05-12T09:34:13.122Z,6376.00
2018-05-12T09:35:13.145Z,6292.00
2018-05-12T09:36:13.221Z,6380.00
2018-05-12T09:37:13.201Z,6344.00
2018-05-12T09:38:13.224Z,6348.00
2018-05-12T09:39:13.251Z,6500.00
2018-05-12T09:40:13.276Z,6324.00
2018-05-12T09:41:13.305Z,6304.00
2018-05-12T09:42:13.364Z,6092.00
2018-05-12T09:43:13.356Z,6056.00
2018-05-12T09:44:13.383Z,4924.00
2018-05-12T09:45:13.411Z,5108.00
2018-05-12T09:46:13.434Z,6136.00
2018-05-12T09:47:13.462Z,6836.00
2018-05-12T09:48:13.489Z,6208.00
2018-05-12T09:49:13.519Z,6224.00
2018-05-12T09:50:13.541Z,5944.00
2018-05-12T09:51:13.568Z,6164.00
2018-05-12T09:52:13.595Z,6008.00
2018-05-12T09:53:13.871Z,6284.00
2018-05-12T09:54:13.647Z,6372.00
2018-05-12T09:55:13.673Z,6404.00
2018-05-12T09:56:13.701Z,6428.00
2018-05-12T09:57:13.727Z,6316.00
2018-05-12T09:58:13.752Z,6396.00
2018-05-12T09:59:13.780Z,6236.00
2018-05-12T10:00:13.806Z,6064.00
2018-05-12T10:01:13.834Z,5808.00
2018-05-12T10:02:13.860Z,6048.00
2018-05-12T10:03:13.886Z,6184.00
2018-05-12T10:04:13.914Z,6328.00
2018-05-12T10:05:13.940Z,6532.00
2018-05-12T10:06:13.967Z,6068.00
2018-05-12T10:07:13.994Z,6096.00
2018-05-12T10:08:14.028Z,6104.00
2018-05-12T10:09:14.049Z,5612.00
2018-05-12T10:10:14.074Z,4428.00
2018-05-12T10:11:14.102Z,5988.00
2018-05-12T10:12:14.129Z,6064.00
2018-05-12T10:13:14.157Z,6204.00
2018-05-12T10:14:14.182Z,3940.00
2018-05-12T10:15:14.210Z,3824.00
2018-05-12T10:16:14.237Z,6304.00
2018-05-12T10:17:14.265Z,6012.00
2018-05-12T10:18:14.289Z,6236.00
2018-05-12T10:19:14.318Z,3804.00
2018-05-12T10:20:14.345Z,3840.00
2018-05-12T10:21:14.372Z,3880.00
2018-05-12T10:22:14.398Z,3836.00
2018-05-12T10:23:14.425Z,3848.00
2018-05-12T10:24:14.453Z,3892.00
2018-05-12T10:25:14.481Z,4020.00
2018-05-12T10:26:14.628Z,4728.00
2018-05-12T10:27:14.583Z,4620.00
2018-05-12T10:28:14.561Z,4784.00
2018-05-12T10:29:14.587Z,5020.00
2018-05-12T10:30:14.613Z,6696.00
2018-05-12T10:31:14.642Z,5324.00
2018-05-12T10:32:14.669Z,5028.00
2018-05-12T10:33:14.694Z,4916.00
2018-05-12T10:34:14.723Z,4732.00
2018-05-12T10:35:14.748Z,4500.00
2018-05-12T10:36:14.774Z,4356.00
2018-05-12T10:37:14.801Z,4124.00
2018-05-12T10:38:14.826Z,3940.00
2018-05-12T10:39:14.857Z,3956.00
2018-05-12T10:40:14.881Z,4080.00
2018-05-12T10:41:14.909Z,4228.00
2018-05-12T10:42:14.934Z,4472.00
2018-05-12T10:43:14.960Z,4808.00
2018-05-12T10:44:14.987Z,5532.00
2018-05-12T10:45:15.017Z,6824.00
2018-05-12T10:46:15.040Z,6992.00
2018-05-12T10:47:15.067Z,7344.00
2018-05-12T10:48:15.093Z,7384.00
2018-05-12T10:49:15.122Z,7136.00
2018-05-12T10:50:15.146Z,7360.00
2018-05-12T10:51:15.173Z,7452.00
2018-05-12T10:52:15.200Z,7548.00
2018-05-12T10:53:15.227Z,7116.00
2018-05-12T10:54:15.252Z,6996.00
2018-05-12T10:55:15.280Z,7012.00
2018-05-12T10:56:15.306Z,6992.00
2018-05-12T10:57:15.334Z,6796.00
2018-05-12T10:58:15.360Z,7016.00
2018-05-12T10:59:15.387Z,6876.00
2018-05-12T11:00:15.414Z,7028.00
2018-05-12T11:01:15.442Z,7020.00
2018-05-12T11:02:15.471Z,7184.00
2018-05-12T11:03:15.495Z,7332.00
2018-05-12T11:04:15.522Z,7468.00
2018-05-12T11:05:15.551Z,7392.00
2018-05-12T11:06:15.576Z,7288.00
2018-05-12T11:07:15.640Z,7220.00
2018-05-12T11:08:15.632Z,6912.00
2018-05-12T11:09:15.657Z,6628.00
2018-05-12T11:10:15.685Z,6540.00
2018-05-12T11:11:15.713Z,6460.00
2018-05-12T11:12:15.741Z,6492.00
2018-05-12T11:13:15.771Z,6472.00
2018-05-12T11:14:15.795Z,6496.00
2018-05-12T11:15:15.823Z,6464.00
2018-05-12T11:16:15.851Z,6604.00
2018-05-12T11:17:15.878Z,6784.00
2018-05-12T11:18:15.906Z,6980.00
2018-05-12T11:19:15.933Z,7084.00
2018-05-12T11:20:15.964Z,7296.00
2018-05-12T11:21:15.988Z,7404.00
2018-05-12T11:22:16.015Z,7452.00
2018-05-12T11:23:16.044Z,7368.00
2018-05-12T11:24:16.072Z,7336.00
2018-05-12T11:25:16.101Z,7212.00
2018-05-12T11:26:16.127Z,7152.00
2018-05-12T11:27:16.156Z,7364.00
2018-05-12T11:28:16.189Z,7820.00
2018-05-12T11:29:16.211Z,7832.00
2018-05-12T11:30:16.237Z,7760.00
2018-05-12T11:31:16.268Z,7748.00
2018-05-12T11:32:16.414Z,7508.00
2018-05-12T11:33:16.323Z,7128.00
2018-05-12T11:34:16.352Z,7068.00
2018-05-12T11:35:16.377Z,6876.00
2018-05-12T11:36:16.406Z,6988.00
2018-05-12T11:37:16.433Z,6992.00
2018-05-12T11:38:16.460Z,7068.00
2018-05-12T11:39:16.488Z,5868.00
2018-05-12T11:40:16.516Z,5840.00
2018-05-12T11:41:16.544Z,6952.00
2018-05-12T11:42:16.570Z,6932.00
2018-05-12T11:43:16.602Z,5780.00
2018-05-12T11:44:16.626Z,5680.00
2018-05-12T11:45:16.655Z,5624.00
2018-05-12T11:46:16.681Z,5940.00
2018-05-12T11:47:16.709Z,6692.00
2018-05-12T11:48:16.737Z,6836.00
2018-05-12T11:49:16.767Z,6828.00
2018-05-12T11:50:16.797Z,6968.00
2018-05-12T11:51:16.819Z,6920.00
2018-05-12T11:52:16.847Z,6816.00
2018-05-12T11:53:16.874Z,6848.00
2018-05-12T11:54:16.900Z,6656.00
2018-05-12T11:55:16.933Z,6748.00
2018-05-12T11:56:16.956Z,6808.00
2018-05-12T11:57:16.983Z,5884.00
2018-05-12T11:58:17.015Z,6448.00
2018-05-12T11:59:17.036Z,6896.00
2018-05-12T12:00:17.066Z,7280.00
2018-05-12T12:01:17.092Z,7488.00
2018-05-12T12:02:17.124Z,7412.00
2018-05-12T12:03:17.146Z,7440.00
2018-05-12T12:04:17.174Z,7684.00
2018-05-12T12:05:17.203Z,7568.00
2018-05-12T12:06:17.232Z,7488.00
2018-05-12T12:07:17.257Z,7448.00
2018-05-12T12:08:17.287Z,7352.00
2018-05-12T12:09:17.312Z,7164.00
2018-05-12T12:10:17.339Z,6860.00
2018-05-12T12:11:17.366Z,6616.00
2018-05-12T12:12:17.396Z,6864.00
2018-05-12T12:13:17.423Z,7000.00
2018-05-12T12:14:17.449Z,7136.00
2018-05-12T12:15:17.477Z,7164.00
2018-05-12T12:16:17.510Z,6996.00
2018-05-12T12:17:17.534Z,6524.00
2018-05-12T12:18:17.565Z,7196.00
2018-05-12T12:19:17.588Z,7000.00
2018-05-12T12:20:17.616Z,6600.00
2018-05-12T12:21:17.644Z,6660.00
2018-05-12T12:22:17.669Z,7364.00
2018-05-12T12:23:17.698Z,7116.00
2018-05-12T12:24:17.725Z,7212.00
2018-05-12T12:25:17.753Z,7176.00
2018-05-12T12:26:17.780Z,7104.00